Puropanmaru No.3 — JD3322 — position and weather

sailwx.info

Track history (hours):
 
Tides and Currents Weather Stations Pressure Air Temp Water Temp Dewpoint Dewpoint Depression Visibility Wind Speed Wind Dir Waves Ship Positions

Puropanmaru No.3

Last reported at 2017-Jan-16 06:24 UTC. Time now 2017-Jan-18 12:09 UTC.
Position N 35°11' E 139°45'.

Length 68 m; draft 4.4 m.

Type: Tanker. MMSI: 431003365.

Date/timePositionNaut miles runAvg speedWind from/ knotsBaromVisibWave heightAir tempDewpointWater temp
2017-Jan-16 06:24N 35°11' E 139°45'1011.5
2017-Jan-16 05:33N 35°20' E 139°42'1211.9
2017-Jan-16 04:33N 35°30' E 139°52'10 2.3
2017-Jan-16 00:22N 35°32' E 140°03'7 8.4
2017-Jan-15 23:33N 35°29' E 139°56'0 0.1
2017-Jan-15 22:31N 35°29' E 139°56'0 0.0
2017-Jan-15 21:25N 35°29' E 139°56'0 0.0
2017-Jan-15 20:34N 35°29' E 139°56'0 0.0
2017-Jan-15 19:34N 35°29' E 139°56'0 0.0
2017-Jan-15 18:31N 35°29' E 139°56'0 0.0
2017-Jan-15 17:31N 35°29' E 139°56'0 0.0
2017-Jan-15 16:31N 35°29' E 139°56'0 0.0
2017-Jan-15 15:31N 35°29' E 139°56'0 0.0
2017-Jan-15 14:28N 35°29' E 139°56'0 0.0
2017-Jan-15 13:34N 35°29' E 139°56'0 0.0
2017-Jan-15 12:25N 35°29' E 139°56'0 0.0
2017-Jan-15 11:13N 35°29' E 139°55'0 0.1
2017-Jan-15 10:31N 35°29' E 139°56'0 0.0
2017-Jan-15 09:31N 35°29' E 139°55'0 0.1
2017-Jan-15 08:33N 35°29' E 139°56'0 0.0
2017-Jan-15 07:31N 35°29' E 139°56'0 0.0
2017-Jan-15 06:28N 35°29' E 139°56'0 0.0
2017-Jan-15 05:34N 35°29' E 139°56'0 0.0
2017-Jan-15 04:31N 35°29' E 139°56'0 0.0
2017-Jan-15 03:33N 35°29' E 139°56'0 0.1
2017-Jan-15 02:33N 35°29' E 139°55'0 0.0
2017-Jan-15 01:33N 35°29' E 139°56'0 0.0
2017-Jan-15 00:33N 35°29' E 139°56'0 0.0
2017-Jan-14 23:33N 35°29' E 139°56'0 0.0
2017-Jan-14 22:34N 35°29' E 139°56'0 0.0
2017-Jan-14 21:31N 35°29' E 139°56'0 0.0
2017-Jan-14 20:33N 35°29' E 139°56'0 0.0
2017-Jan-14 19:33N 35°29' E 139°56'0 0.0
2017-Jan-14 18:33N 35°29' E 139°56'0 0.0
2017-Jan-14 17:33N 35°29' E 139°56'0 0.0
2017-Jan-14 16:33N 35°29' E 139°56'0 0.0
2017-Jan-14 15:33N 35°29' E 139°55'0 0.0
2017-Jan-14 14:34N 35°29' E 139°55'0 0.0
2017-Jan-14 13:33N 35°29' E 139°55'0 0.0
2017-Jan-14 12:33N 35°29' E 139°55'0 0.0
2017-Jan-14 11:33N 35°29' E 139°55'0 0.0
2017-Jan-14 10:33N 35°29' E 139°55'0 0.0
2017-Jan-14 09:33N 35°29' E 139°55'0 0.0
2017-Jan-14 08:31N 35°29' E 139°55'5 5.7
2017-Jan-14 07:33N 35°27' E 139°49'1111.3
2017-Jan-14 06:33N 35°16' E 139°47'239 7.7
2017-Jan-12 23:28N 34°38' E 134°59'910.2
2017-Jan-12 22:33N 34°29' E 134°60'16 0.4
2017-Jan-11 08:30N 34°13' E 134°59'242 9.2
2017-Jan-10 06:21N 35°10' E 139°45'911.8
2017-Jan-10 05:33N 35°20' E 139°43'1111.5
2017-Jan-10 04:33N 35°29' E 139°51'9 1.9
2017-Jan-09 23:33N 35°32' E 140°02'7 6.4
2017-Jan-09 22:31N 35°29' E 139°55'0 0.0
2017-Jan-09 21:28N 35°29' E 139°55'0 0.1
2017-Jan-09 20:31N 35°29' E 139°55'0 0.0
2017-Jan-09 19:31N 35°29' E 139°55'5 5.2
2017-Jan-09 18:33N 35°27' E 139°49'1111.0
2017-Jan-09 17:33N 35°16' E 139°46'  
2017-Jan-07 12:17N 34°07' E 134°47'33 3.0
2017-Jan-07 01:27N 34°37' E 135°01'8 8.5
2017-Jan-07 00:33N 34°30' E 135°00'  
Track history (hours):
 
Tides and Currents Weather Stations Pressure Air Temp Water Temp Dewpoint Dewpoint Depression Visibility Wind Speed Wind Dir Waves Ship Positions

Puropanmaru No.3

Last reported at 2017-Jan-16 06:24 UTC. Time now 2017-Jan-18 12:09 UTC.
Position N 35°11' E 139°45'.

Length 68 m; draft 4.4 m.

Type: Tanker. MMSI: 431003365.

Date/timePositionNaut miles runAvg speedWind from/ knotsBaromVisibWave heightAir tempDewpointWater temp
2017-Jan-16 06:24N 35°11' E 139°45'1011.5
2017-Jan-16 05:33N 35°20' E 139°42'1211.9
2017-Jan-16 04:33N 35°30' E 139°52'10 2.3
2017-Jan-16 00:22N 35°32' E 140°03'7 8.4
2017-Jan-15 23:33N 35°29' E 139°56'0 0.1
2017-Jan-15 22:31N 35°29' E 139°56'0 0.0
2017-Jan-15 21:25N 35°29' E 139°56'0 0.0
2017-Jan-15 20:34N 35°29' E 139°56'0 0.0
2017-Jan-15 19:34N 35°29' E 139°56'0 0.0
2017-Jan-15 18:31N 35°29' E 139°56'0 0.0
2017-Jan-15 17:31N 35°29' E 139°56'0 0.0
2017-Jan-15 16:31N 35°29' E 139°56'0 0.0
2017-Jan-15 15:31N 35°29' E 139°56'0 0.0
2017-Jan-15 14:28N 35°29' E 139°56'0 0.0
2017-Jan-15 13:34N 35°29' E 139°56'0 0.0
2017-Jan-15 12:25N 35°29' E 139°56'0 0.0
2017-Jan-15 11:13N 35°29' E 139°55'0 0.1
2017-Jan-15 10:31N 35°29' E 139°56'0 0.0
2017-Jan-15 09:31N 35°29' E 139°55'0 0.1
2017-Jan-15 08:33N 35°29' E 139°56'0 0.0
2017-Jan-15 07:31N 35°29' E 139°56'0 0.0
2017-Jan-15 06:28N 35°29' E 139°56'0 0.0
2017-Jan-15 05:34N 35°29' E 139°56'0 0.0
2017-Jan-15 04:31N 35°29' E 139°56'0 0.0
2017-Jan-15 03:33N 35°29' E 139°56'0 0.1
2017-Jan-15 02:33N 35°29' E 139°55'0 0.0
2017-Jan-15 01:33N 35°29' E 139°56'0 0.0
2017-Jan-15 00:33N 35°29' E 139°56'0 0.0
2017-Jan-14 23:33N 35°29' E 139°56'0 0.0
2017-Jan-14 22:34N 35°29' E 139°56'0 0.0
2017-Jan-14 21:31N 35°29' E 139°56'0 0.0
2017-Jan-14 20:33N 35°29' E 139°56'0 0.0
2017-Jan-14 19:33N 35°29' E 139°56'0 0.0
2017-Jan-14 18:33N 35°29' E 139°56'0 0.0
2017-Jan-14 17:33N 35°29' E 139°56'0 0.0
2017-Jan-14 16:33N 35°29' E 139°56'0 0.0
2017-Jan-14 15:33N 35°29' E 139°55'0 0.0
2017-Jan-14 14:34N 35°29' E 139°55'0 0.0
2017-Jan-14 13:33N 35°29' E 139°55'0 0.0
2017-Jan-14 12:33N 35°29' E 139°55'0 0.0
2017-Jan-14 11:33N 35°29' E 139°55'0 0.0
2017-Jan-14 10:33N 35°29' E 139°55'0 0.0
2017-Jan-14 09:33N 35°29' E 139°55'0 0.0
2017-Jan-14 08:31N 35°29' E 139°55'5 5.7
2017-Jan-14 07:33N 35°27' E 139°49'1111.3
2017-Jan-14 06:33N 35°16' E 139°47'239 7.7
2017-Jan-12 23:28N 34°38' E 134°59'910.2
2017-Jan-12 22:33N 34°29' E 134°60'16 0.4
2017-Jan-11 08:30N 34°13' E 134°59'242 9.2
2017-Jan-10 06:21N 35°10' E 139°45'911.8
2017-Jan-10 05:33N 35°20' E 139°43'1111.5
2017-Jan-10 04:33N 35°29' E 139°51'9 1.9
2017-Jan-09 23:33N 35°32' E 140°02'7 6.4
2017-Jan-09 22:31N 35°29' E 139°55'0 0.0
2017-Jan-09 21:28N 35°29' E 139°55'0 0.1
2017-Jan-09 20:31N 35°29' E 139°55'0 0.0
2017-Jan-09 19:31N 35°29' E 139°55'5 5.2
2017-Jan-09 18:33N 35°27' E 139°49'1111.0
2017-Jan-09 17:33N 35°16' E 139°46'  
2017-Jan-07 12:17N 34°07' E 134°47'33 3.0
2017-Jan-07 01:27N 34°37' E 135°01'8 8.5
2017-Jan-07 00:33N 34°30' E 135°00'  

Dump ship's entire track history